Time;durP1;ratioP1;P1;durP2;ratioP2;P2;SDS_P1;SDS_P2;PMS_P1;PMS_P2;Temp;Humidity;BMP_temperature;BMP_pressure;BME280_temperature;BME280_humidity;BME280_pressure;Samples;Min_cycle;Max_cycle;Signal;HPM_P1;HPM_P2
2022/06/03 00:02:02;;;;;;;7.18;5.57;;;15.20;99.90;;;;;;5094133;28;20031;-52
2022/06/03 00:04:52;;;;;;;14.38;5.07;;;15.20;99.90;;;;;;5093881;28;20414;-53
2022/06/03 00:07:47;;;;;;;6.05;5.43;;;15.30;99.90;;;;;;5093883;28;20020;-57
2022/06/03 00:10:28;;;;;;;6.30;5.65;;;15.20;99.90;;;;;;5094078;28;20023;-57
2022/06/03 00:13:21;;;;;;;12.98;6.55;;;15.20;99.90;;;;;;5094050;28;20503;-57
2022/06/03 00:16:05;;;;;;;7.78;5.93;;;15.20;99.90;;;;;;5094240;28;20032;-56
2022/06/03 00:18:34;;;;;;;12.40;6.00;;;15.10;99.90;;;;;;5093849;28;20036;-55
2022/06/03 00:21:09;;;;;;;10.00;6.50;;;15.10;99.90;;;;;;5093678;28;20638;-53
2022/06/03 00:23:52;;;;;;;11.07;6.43;;;15.00;99.90;;;;;;5092483;28;20024;-55
2022/06/03 00:26:30;;;;;;;8.90;6.68;;;15.00;99.90;;;;;;5093719;28;20028;-56
2022/06/03 00:29:24;;;;;;;10.38;6.53;;;14.90;99.90;;;;;;5077250;28;20020;-58
2022/06/03 00:32:08;;;;;;;13.88;6.50;;;14.80;99.90;;;;;;5093201;28;20016;-56
2022/06/03 00:34:51;;;;;;;;;;;14.90;99.90;;;;;;5093585;28;20056;-57
2022/06/03 00:37:19;;;;;;;8.73;6.70;;;14.80;99.90;;;;;;5093672;28;19976;-58
2022/06/03 00:39:48;;;;;;;8.40;5.60;;;14.70;99.90;;;;;;5092814;28;20044;-58
2022/06/03 00:42:48;;;;;;;7.97;7.18;;;14.60;99.90;;;;;;5093181;28;20123;-53
2022/06/03 00:45:59;;;;;;;10.00;7.35;;;14.60;99.90;;;;;;5093304;28;20016;-58
2022/06/03 00:48:30;;;;;;;11.45;6.72;;;14.60;99.90;;;;;;5086363;28;20510;-57
2022/06/03 00:51:21;;;;;;;12.57;7.30;;;14.50;99.90;;;;;;5093102;28;20032;-54
2022/06/03 00:54:01;;;;;;;6.97;6.38;;;14.50;99.90;;;;;;5092784;28;20501;-56
2022/06/03 00:56:47;;;;;;;10.50;6.32;;;14.50;99.90;;;;;;5092662;28;20043;-54
2022/06/03 00:59:54;;;;;;;12.93;7.20;;;14.50;99.90;;;;;;5092263;28;20036;-56
2022/06/03 01:02:57;;;;;;;8.65;6.75;;;14.40;99.90;;;;;;5089861;28;20020;-54
2022/06/03 01:05:34;;;;;;;7.03;6.32;;;14.40;99.90;;;;;;5092409;28;20353;-55
2022/06/03 01:08:14;;;;;;;14.50;7.70;;;14.40;99.90;;;;;;5092681;28;20077;-55
2022/06/03 01:11:01;;;;;;;9.43;7.13;;;14.40;99.90;;;;;;5092821;28;20039;-53
2022/06/03 01:13:45;;;;;;;13.25;6.90;;;14.40;99.90;;;;;;5093065;28;20016;-51
2022/06/03 01:16:20;;;;;;;7.97;6.45;;;14.30;99.90;;;;;;5092489;28;20024;-55
2022/06/03 01:19:10;;;;;;;15.07;7.30;;;14.30;99.90;;;;;;5091644;28;20012;-57
2022/06/03 01:21:59;;;;;;;16.67;7.18;;;14.30;99.90;;;;;;5092830;28;20592;-52
2022/06/03 01:24:52;;;;;;;25.00;7.10;;;14.30;99.90;;;;;;5092507;28;20099;-56
2022/06/03 01:27:45;;;;;;;7.68;6.30;;;14.20;99.90;;;;;;5068256;28;20032;-55
2022/06/03 01:30:55;;;;;;;12.60;7.40;;;14.20;99.90;;;;;;5091940;28;20028;-56
2022/06/03 01:33:20;;;;;;;14.05;6.88;;;14.10;99.90;;;;;;5091514;28;20019;-58
2022/06/03 01:36:24;;;;;;;8.18;7.30;;;14.10;99.90;;;;;;5092223;28;20445;-54
2022/06/03 01:38:53;;;;;;;12.95;8.85;;;14.00;99.90;;;;;;5087127;28;20105;-55
2022/06/03 01:41:29;;;;;;;14.25;6.80;;;13.80;99.90;;;;;;5090985;28;20039;-54
2022/06/03 01:44:15;;;;;;;11.30;7.07;;;13.90;99.90;;;;;;5092211;28;20069;-56
2022/06/03 01:47:03;;;;;;;14.10;7.63;;;13.90;99.90;;;;;;5091679;28;20460;-56
2022/06/03 01:49:44;;;;;;;10.27;7.13;;;13.90;99.90;;;;;;5091765;28;20024;-57
2022/06/03 01:52:33;;;;;;;9.13;6.78;;;13.90;99.90;;;;;;5092040;28;20028;-56
2022/06/03 01:55:37;;;;;;;12.23;6.90;;;14.00;99.90;;;;;;5091322;28;20061;-55
2022/06/03 01:58:14;;;;;;;13.10;7.90;;;14.00;99.90;;;;;;5091965;28;20032;-54
2022/06/03 02:01:04;;;;;;;12.35;8.27;;;14.00;99.90;;;;;;5091621;28;20032;-57
2022/06/03 02:04:03;;;;;;;11.75;9.00;;;14.00;99.90;;;;;;5091716;28;20055;-55
2022/06/03 02:06:59;;;;;;;13.93;9.27;;;14.00;99.90;;;;;;5091303;28;20065;-53
2022/06/03 02:09:55;;;;;;;10.80;8.95;;;14.00;99.90;;;;;;5090639;28;20100;-56
2022/06/03 02:12:29;;;;;;;12.65;8.90;;;13.90;99.90;;;;;;5090688;28;20032;-54
2022/06/03 02:15:22;;;;;;;11.40;8.90;;;13.90;99.90;;;;;;5090694;28;20038;-56
2022/06/03 02:18:25;;;;;;;12.05;9.00;;;14.00;99.90;;;;;;5090548;28;20027;-55
2022/06/03 02:21:12;;;;;;;12.10;9.90;;;14.00;99.90;;;;;;5089568;28;20059;-55
2022/06/03 02:23:55;;;;;;;15.93;9.85;;;14.10;99.90;;;;;;5089195;28;20027;-54
2022/06/03 02:26:27;;;;;;;14.52;10.50;;;14.00;99.90;;;;;;5090282;28;20479;-52
2022/06/03 02:30:24;;;;;;;12.38;8.65;;;14.00;99.90;;;;;;5090409;28;20024;-49
2022/06/03 02:32:02;;;;;;;17.17;11.85;;;14.00;99.90;;;;;;5090436;28;20399;-52
2022/06/03 02:34:52;;;;;;;14.00;9.68;;;13.90;99.90;;;;;;5090173;28;20024;-53
2022/06/03 02:37:51;;;;;;;14.70;10.02;;;13.90;99.90;;;;;;5090121;28;20368;-53
2022/06/03 02:40:20;;;;;;;15.77;10.40;;;13.90;99.90;;;;;;5091084;28;20032;-51
2022/06/03 02:43:16;;;;;;;11.32;10.15;;;13.80;99.90;;;;;;5091452;28;20493;-54
2022/06/03 02:46:15;;;;;;;13.18;9.90;;;13.80;99.90;;;;;;5091426;28;20291;-54
2022/06/03 02:49:15;;;;;;;12.13;9.95;;;13.80;99.90;;;;;;5091604;28;20028;-55
2022/06/03 02:52:02;;;;;;;16.25;10.57;;;13.80;99.90;;;;;;5090764;28;20476;-53
2022/06/03 02:55:05;;;;;;;16.90;11.05;;;13.80;99.90;;;;;;5089850;28;20111;-54
2022/06/03 02:57:49;;;;;;;12.68;11.13;;;13.80;99.90;;;;;;5090238;28;20097;-54
2022/06/03 03:00:18;;;;;;;;;;;13.90;99.90;;;;;;5072281;28;20044;-53
2022/06/03 03:03:02;;;;;;;16.30;11.35;;;13.90;99.90;;;;;;5091441;28;19916;-55
2022/06/03 03:06:03;;;;;;;19.05;11.85;;;13.90;99.90;;;;;;5091621;28;20056;-52
2022/06/03 03:09:06;;;;;;;14.05;10.63;;;14.00;99.90;;;;;;5091219;28;20107;-55
2022/06/03 03:11:53;;;;;;;16.08;12.07;;;14.00;99.90;;;;;;5048142;28;20059;-53
2022/06/03 03:14:37;;;;;;;12.40;11.10;;;14.10;99.90;;;;;;5061567;28;20051;-56
2022/06/03 03:17:16;;;;;;;12.70;11.40;;;14.10;99.90;;;;;;5091082;28;20035;-54
2022/06/03 03:20:06;;;;;;;14.45;11.60;;;14.20;99.90;;;;;;5091075;28;20072;-54
2022/06/03 03:22:54;;;;;;;18.13;13.20;;;14.20;99.90;;;;;;5090999;28;20142;-55
2022/06/03 03:25:38;;;;;;;13.40;11.10;;;14.20;99.90;;;;;;5090027;28;20024;-55
2022/06/03 03:28:38;;;;;;;18.02;12.15;;;14.30;99.90;;;;;;5090659;28;20058;-54
2022/06/03 03:31:24;;;;;;;13.63;11.82;;;14.30;99.90;;;;;;5091182;28;20028;-52
2022/06/03 03:34:28;;;;;;;12.32;10.82;;;14.30;99.90;;;;;;5091074;28;20172;-53
2022/06/03 03:37:25;;;;;;;18.10;11.98;;;14.30;99.90;;;;;;5090966;28;20028;-56
2022/06/03 03:40:19;;;;;;;14.77;11.10;;;14.30;99.90;;;;;;5090625;28;20131;-55
2022/06/03 03:42:57;;;;;;;14.38;11.77;;;14.30;99.90;;;;;;5090647;28;20027;-54
2022/06/03 03:46:10;;;;;;;17.25;11.82;;;14.30;99.90;;;;;;5090917;28;20036;-57
2022/06/03 03:48:39;;;;;;;15.82;11.15;;;14.40;99.90;;;;;;5090823;28;20024;-55
2022/06/03 03:51:10;;;;;;;12.73;11.35;;;14.40;99.90;;;;;;5090765;28;20340;-54
2022/06/03 03:53:57;;;;;;;12.10;10.68;;;14.50;99.90;;;;;;5089528;28;20078;-54
2022/06/03 03:56:55;;;;;;;12.25;10.98;;;14.50;99.90;;;;;;5091136;28;20394;-54
2022/06/03 03:59:59;;;;;;;11.57;10.35;;;14.60;99.90;;;;;;5090534;28;20578;-53
2022/06/03 04:02:43;;;;;;;;;;;14.60;99.90;;;;;;5052941;28;20115;-53
2022/06/03 04:05:39;;;;;;;13.82;10.50;;;14.70;99.90;;;;;;5094565;28;20302;-53
2022/06/03 04:08:30;;;;;;;11.02;9.93;;;14.80;99.90;;;;;;5094411;28;20429;-54
2022/06/03 04:11:17;;;;;;;15.48;9.85;;;14.80;99.90;;;;;;5094458;28;20482;-57
2022/06/03 04:13:54;;;;;;;11.40;9.30;;;14.80;99.90;;;;;;5088390;28;20032;-55
2022/06/03 04:16:35;;;;;;;10.77;9.73;;;14.90;99.90;;;;;;5094253;28;20031;-57
2022/06/03 04:19:22;;;;;;;11.70;9.63;;;14.90;99.90;;;;;;5077705;28;20035;-54
2022/06/03 04:21:59;;;;;;;17.05;9.63;;;14.90;99.90;;;;;;5094108;28;20471;-57
2022/06/03 04:24:28;;;;;;;10.35;8.88;;;15.00;99.90;;;;;;5093089;28;20043;-55
2022/06/03 04:27:12;;;;;;;13.93;8.27;;;15.00;99.90;;;;;;5092394;28;20021;-54
2022/06/03 04:29:56;;;;;;;11.48;8.50;;;15.10;99.90;;;;;;5087533;28;20110;-55
2022/06/03 04:32:46;;;;;;;14.10;8.90;;;15.10;99.90;;;;;;5092514;28;20036;-51
2022/06/03 04:35:30;;;;;;;13.35;8.23;;;15.20;99.90;;;;;;5093115;28;20036;-49
2022/06/03 04:38:32;;;;;;;10.18;8.55;;;15.30;99.90;;;;;;5093034;28;20507;-54
2022/06/03 04:41:36;;;;;;;12.63;8.30;;;15.40;99.90;;;;;;5092885;28;20024;-50
2022/06/03 04:44:25;;;;;;;9.30;6.88;;;15.30;99.90;;;;;;5092478;28;20039;-53
2022/06/03 04:47:09;;;;;;;13.00;8.07;;;15.50;99.90;;;;;;5083137;28;20032;-57
2022/06/03 04:50:03;;;;;;;16.75;8.88;;;15.50;99.90;;;;;;5093085;28;20036;-53
2022/06/03 04:52:52;;;;;;;10.93;7.32;;;15.50;99.90;;;;;;5092849;28;20024;-52
2022/06/03 04:55:45;;;;;;;13.38;7.68;;;15.60;99.90;;;;;;5093175;28;20070;-51
2022/06/03 04:58:55;;;;;;;10.82;7.38;;;15.70;99.90;;;;;;5092788;28;20031;-53
2022/06/03 05:01:51;;;;;;;14.43;8.90;;;15.90;99.90;;;;;;5066201;28;20040;-54
2022/06/03 05:04:41;;;;;;;11.68;7.43;;;16.00;99.90;;;;;;5087657;28;20024;-52
2022/06/03 05:07:09;;;;;;;9.55;8.52;;;16.20;99.90;;;;;;5093031;28;20085;-51
2022/06/03 05:10:02;;;;;;;9.15;8.25;;;16.20;99.90;;;;;;5092923;28;20111;-51
2022/06/03 05:12:51;;;;;;;11.23;7.28;;;16.30;99.90;;;;;;5082979;28;20028;-56
2022/06/03 05:15:34;;;;;;;12.77;7.97;;;16.30;99.90;;;;;;5093087;28;20078;-57
2022/06/03 05:18:28;;;;;;;9.73;7.70;;;16.20;99.90;;;;;;5072735;28;20039;-53
2022/06/03 05:21:32;;;;;;;10.18;7.47;;;16.10;99.90;;;;;;5072677;28;20044;-56
2022/06/03 05:24:16;;;;;;;11.27;8.20;;;16.00;99.90;;;;;;5029809;28;20033;-52
2022/06/03 05:26:44;;;;;;;;;;;16.00;99.90;;;;;;5042996;28;20229;-57
2022/06/03 05:29:24;;;;;;;8.88;7.82;;;15.90;99.90;;;;;;5069342;28;19999;-57
2022/06/03 05:32:17;;;;;;;11.55;8.38;;;15.90;99.90;;;;;;5090959;28;20073;-55
2022/06/03 05:34:49;;;;;;;13.68;8.45;;;16.00;99.90;;;;;;5071326;28;20025;-53
2022/06/03 05:37:26;;;;;;;13.20;8.27;;;16.10;99.90;;;;;;5076894;28;20035;-52
2022/06/03 05:39:55;;;;;;;11.68;7.97;;;16.20;99.90;;;;;;5087557;28;20486;-51
2022/06/03 05:42:23;;;;;;;37.42;9.52;;;16.20;99.90;;;;;;5091540;28;20016;-52
2022/06/03 05:44:49;;;;;;;14.40;8.40;;;16.30;99.90;;;;;;5090124;28;20032;-53
2022/06/03 05:47:33;;;;;;;9.75;7.35;;;16.40;99.90;;;;;;5072325;28;20017;-55
2022/06/03 05:50:07;;;;;;;8.13;7.07;;;16.50;99.90;;;;;;5072379;28;20020;-56
2022/06/03 05:52:47;;;;;;;15.00;8.57;;;16.50;99.90;;;;;;5072471;28;20031;-55
2022/06/03 05:55:27;;;;;;;13.30;7.32;;;16.60;99.90;;;;;;5072150;28;20020;-55
2022/06/03 05:58:11;;;;;;;11.25;7.50;;;16.60;99.90;;;;;;5072167;28;20368;-55
2022/06/03 06:01:01;;;;;;;10.20;7.45;;;16.60;99.90;;;;;;5087233;28;20412;-57
2022/06/03 06:03:35;;;;;;;12.70;7.20;;;16.80;99.90;;;;;;5080632;28;20032;-57
2022/06/03 06:06:18;;;;;;;10.10;6.68;;;16.80;99.90;;;;;;5081419;28;20106;-50
2022/06/03 06:08:51;;;;;;;;;;;16.90;99.90;;;;;;5092707;28;20017;-54
2022/06/03 06:11:40;;;;;;;8.52;7.43;;;16.90;99.90;;;;;;5091984;28;19911;-57
2022/06/03 06:14:32;;;;;;;13.02;6.75;;;16.90;99.90;;;;;;5088686;28;20031;-52
2022/06/03 06:17:21;;;;;;;10.38;7.45;;;17.00;99.90;;;;;;5085814;28;20028;-58
2022/06/03 06:19:54;;;;;;;9.25;6.80;;;17.10;99.90;;;;;;5091611;28;20020;-55
2022/06/03 06:22:30;;;;;;;11.20;6.75;;;17.20;99.90;;;;;;5091744;28;20016;-58
2022/06/03 06:25:20;;;;;;;8.45;6.80;;;17.20;99.90;;;;;;5091754;28;20027;-54
2022/06/03 06:27:59;;;;;;;6.60;5.97;;;17.30;99.90;;;;;;5091870;28;20020;-56
2022/06/03 06:31:10;;;;;;;16.30;7.03;;;17.30;99.90;;;;;;5091550;28;20024;-56
2022/06/03 06:34:02;;;;;;;8.70;6.30;;;17.40;99.90;;;;;;5090469;28;20020;-53
2022/06/03 06:37:00;;;;;;;9.40;6.60;;;17.50;99.90;;;;;;5086211;28;20052;-53
2022/06/03 06:39:51;;;;;;;10.02;6.15;;;17.50;99.90;;;;;;5066901;28;20036;-53
2022/06/03 06:42:25;;;;;;;9.45;7.25;;;17.70;99.90;;;;;;5070365;28;20662;-54
2022/06/03 06:45:21;;;;;;;10.35;5.80;;;17.70;99.90;;;;;;5072195;28;20173;-53
2022/06/03 06:48:24;;;;;;;6.65;5.70;;;18.00;99.90;;;;;;5091325;28;20092;-57
2022/06/03 06:50:53;;;;;;;7.72;5.68;;;18.20;99.90;;;;;;5089815;28;20345;-55
2022/06/03 06:53:25;;;;;;;9.63;5.55;;;18.30;99.90;;;;;;5089808;28;20028;-56
2022/06/03 06:55:55;;;;;;;6.20;5.65;;;18.30;99.90;;;;;;5090276;28;20110;-58
2022/06/03 06:58:31;;;;;;;10.32;6.80;;;18.30;99.90;;;;;;5090314;28;20031;-56
2022/06/03 07:00:59;;;;;;;6.63;5.50;;;18.30;99.90;;;;;;5089974;28;20026;-57
2022/06/03 07:03:28;;;;;;;8.48;5.05;;;18.50;99.90;;;;;;5090173;28;20062;-52
2022/06/03 07:06:03;;;;;;;10.80;5.15;;;18.70;99.90;;;;;;5089995;28;20361;-57
2022/06/03 07:08:40;;;;;;;17.95;7.95;;;18.80;99.90;;;;;;5091564;28;20364;-55
2022/06/03 07:11:13;;;;;;;13.23;5.53;;;19.00;99.90;;;;;;5091474;28;20050;-58
2022/06/03 07:13:45;;;;;;;14.63;5.33;;;19.10;99.90;;;;;;5090721;28;20344;-57
2022/06/03 07:22:12;;;;;;;14.63;5.20;;;19.90;99.90;;;;;;5091583;28;20031;-56
2022/06/03 07:25:16;;;;;;;9.85;5.13;;;20.00;99.90;;;;;;5091093;28;20396;-58
2022/06/03 07:28:06;;;;;;;17.95;4.90;;;20.10;99.90;;;;;;5091004;28;20039;-58
2022/06/03 07:30:49;;;;;;;21.95;5.63;;;19.90;99.90;;;;;;5091280;28;20020;-55
2022/06/03 07:33:38;;;;;;;7.72;4.93;;;19.90;99.90;;;;;;5091269;28;20032;-55
2022/06/03 07:36:08;;;;;;;17.40;5.05;;;19.60;99.90;;;;;;5090634;28;20356;-58
2022/06/03 07:39:00;;;;;;;9.00;4.20;;;19.80;99.90;;;;;;5092444;28;20503;-57
2022/06/03 07:41:44;;;;;;;12.27;5.38;;;19.90;99.90;;;;;;5094394;28;20032;-57
2022/06/03 07:44:18;;;;;;;9.05;3.95;;;20.30;99.90;;;;;;5094367;28;20024;-58
2022/06/03 07:46:53;;;;;;;5.93;4.45;;;20.60;99.90;;;;;;5094398;28;20043;-54
2022/06/03 07:49:22;;;;;;;8.18;4.20;;;20.40;99.90;;;;;;5094580;28;20032;-54
2022/06/03 07:51:54;;;;;;;6.32;3.88;;;20.60;99.90;;;;;;5094925;28;20356;-58
2022/06/03 07:54:36;;;;;;;16.10;4.93;;;20.70;99.90;;;;;;5094945;28;20016;-55
2022/06/03 07:57:22;;;;;;;15.80;4.27;;;20.80;99.90;;;;;;5073062;28;20487;-55
2022/06/03 07:59:49;;;;;;;14.02;4.95;;;20.60;99.90;;;;;;5074436;28;20024;-56
2022/06/03 08:02:18;;;;;;;3.97;3.45;;;20.50;99.90;;;;;;5074514;28;20490;-58
2022/06/03 08:04:48;;;;;;;10.70;3.40;;;20.60;99.90;;;;;;5090121;28;20021;-58
2022/06/03 08:13:12;;;;;;;5.07;3.95;;;21.30;99.90;;;;;;5094475;28;20042;-58
2022/06/03 08:15:43;;;;;;;8.45;4.05;;;21.20;99.90;;;;;;5094291;28;20370;-56
2022/06/03 08:18:16;;;;;;;8.70;4.05;;;21.20;99.90;;;;;;5092548;28;20024;-56
2022/06/03 08:20:48;;;;;;;5.15;3.92;;;21.50;99.90;;;;;;5093181;28;20055;-57
2022/06/03 08:23:16;;;;;;;4.90;3.20;;;21.50;99.90;;;;;;5093471;28;20078;-58
2022/06/03 08:25:45;;;;;;;5.03;3.70;;;21.50;99.90;;;;;;5088674;28;20367;-57
2022/06/03 08:28:16;;;;;;;4.88;3.72;;;21.70;99.90;;;;;;5087695;28;20029;-55
2022/06/03 08:30:46;;;;;;;4.55;4.15;;;21.60;99.90;;;;;;5075815;28;20036;-57
2022/06/03 08:33:14;;;;;;;8.80;3.53;;;21.60;99.90;;;;;;5092384;28;20067;-57
2022/06/03 08:35:45;;;;;;;13.10;4.00;;;21.80;99.90;;;;;;5092179;28;20024;-57
2022/06/03 08:38:23;;;;;;;4.00;3.63;;;21.80;99.90;;;;;;5092092;28;20467;-58
2022/06/03 08:41:22;;;;;;;3.55;3.25;;;21.70;99.90;;;;;;5092034;28;20032;-58
2022/06/03 08:44:05;;;;;;;10.30;3.85;;;22.20;99.90;;;;;;5092410;28;20050;-59
2022/06/03 08:46:39;;;;;;;7.50;4.00;;;22.20;99.90;;;;;;5092657;28;20081;-58
2022/06/03 08:49:15;;;;;;;6.47;3.92;;;22.40;99.90;;;;;;5092168;28;20029;-57
2022/06/03 08:52:03;;;;;;;4.95;4.15;;;22.50;99.90;;;;;;5080460;28;20111;-53
2022/06/03 08:54:52;;;;;;;8.80;4.00;;;22.60;99.90;;;;;;5088565;28;20491;-57
2022/06/03 08:57:37;;;;;;;7.13;4.07;;;22.60;99.90;;;;;;5076630;28;20100;-56
2022/06/03 09:00:05;;;;;;;6.38;3.45;;;22.90;99.90;;;;;;5073434;28;20025;-57
2022/06/03 09:02:44;;;;;;;4.15;3.42;;;22.90;99.90;;;;;;5073477;28;20021;-57
2022/06/03 09:05:30;;;;;;;13.48;3.30;;;22.70;99.30;;;;;;5073477;28;20384;-59
2022/06/03 09:08:25;;;;;;;10.82;3.38;;;22.60;98.90;;;;;;5088375;28;20021;-59
2022/06/03 09:11:02;;;;;;;7.43;2.95;;;22.90;99.30;;;;;;5088722;28;20047;-59
2022/06/03 09:13:49;;;;;;;3.88;3.03;;;23.00;99.90;;;;;;5092145;28;20020;-57
2022/06/03 09:16:17;;;;;;;2.95;2.72;;;23.20;99.30;;;;;;5092873;28;20032;-56
2022/06/03 09:18:55;;;;;;;4.80;3.45;;;23.20;97.80;;;;;;5093331;28;20029;-58
2022/06/03 09:21:25;;;;;;;3.75;3.15;;;23.50;99.40;;;;;;5093115;28;20032;-57
2022/06/03 09:23:59;;;;;;;4.43;3.40;;;23.50;99.00;;;;;;5092232;28;20031;-59
2022/06/03 09:26:32;;;;;;;7.13;2.80;;;23.50;98.90;;;;;;5092850;28;20027;-58
2022/06/03 09:29:00;;;;;;;3.50;2.50;;;23.70;98.80;;;;;;5091388;28;20028;-55
2022/06/03 09:31:26;;;;;;;3.97;2.80;;;23.80;99.10;;;;;;5092057;28;20028;-56
2022/06/03 09:33:54;;;;;;;5.47;2.55;;;23.90;99.10;;;;;;5092181;28;20463;-56
2022/06/03 09:36:23;;;;;;;3.92;2.95;;;24.00;97.70;;;;;;5091255;28;20041;-54
2022/06/03 09:38:54;;;;;;;3.75;2.75;;;23.90;98.00;;;;;;5092364;28;20589;-56
2022/06/03 09:41:26;;;;;;;7.78;2.88;;;23.80;97.60;;;;;;5092553;28;20016;-56
2022/06/03 09:43:53;;;;;;;5.25;2.30;;;23.90;97.40;;;;;;5092271;28;20017;-56
2022/06/03 09:46:22;;;;;;;5.90;2.40;;;24.20;97.50;;;;;;5092042;28;20024;-54
2022/06/03 09:48:49;;;;;;;9.60;3.03;;;24.50;97.10;;;;;;5091958;28;20107;-55
2022/06/03 09:51:55;;;;;;;7.72;3.17;;;24.60;97.40;;;;;;5091191;28;20558;-53
2022/06/03 09:54:08;;;;;;;9.25;3.30;;;24.50;95.20;;;;;;5090916;28;20123;-52
2022/06/03 09:56:34;;;;;;;3.67;2.70;;;24.60;95.80;;;;;;5091087;28;20036;-55
2022/06/03 09:59:02;;;;;;;3.75;3.40;;;24.90;96.80;;;;;;5080032;28;20582;-56
2022/06/03 10:01:29;;;;;;;4.50;2.53;;;25.50;98.30;;;;;;5078749;28;20036;-56
2022/06/03 10:04:04;;;;;;;7.18;2.97;;;25.50;94.90;;;;;;5080184;28;20111;-52
2022/06/03 10:06:49;;;;;;;7.38;3.47;;;25.40;95.60;;;;;;5078902;28;20028;-55
2022/06/03 10:17:54;;;;;;;5.75;3.17;;;25.40;94.00;;;;;;5081808;28;20435;-52
2022/06/03 10:20:20;;;;;;;4.95;2.60;;;25.70;94.20;;;;;;5081354;28;20048;-53
2022/06/03 10:22:46;;;;;;;7.05;3.13;;;25.90;94.30;;;;;;5080670;28;20024;-55
2022/06/03 10:25:13;;;;;;;7.43;2.40;;;25.90;94.50;;;;;;5080761;28;20111;-56
2022/06/03 10:27:39;;;;;;;5.20;3.60;;;25.80;94.30;;;;;;5080597;28;20035;-55
2022/06/03 10:30:06;;;;;;;5.47;2.53;;;25.70;94.60;;;;;;5079555;28;20043;-55
2022/06/03 10:32:33;;;;;;;9.25;2.97;;;26.00;93.60;;;;;;5081508;28;20356;-54
2022/06/03 10:35:16;;;;;;;11.20;2.63;;;26.00;93.30;;;;;;5081412;28;20027;-52
2022/06/03 10:37:55;;;;;;;4.30;2.70;;;26.00;94.70;;;;;;5081291;28;20048;-52
2022/06/03 10:40:24;;;;;;;4.47;2.50;;;26.40;93.70;;;;;;5081039;28;20036;-55
2022/06/03 10:42:54;;;;;;;3.42;2.05;;;26.40;91.40;;;;;;5080681;28;20035;-56
2022/06/03 10:45:26;;;;;;;2.47;1.75;;;26.70;93.00;;;;;;5089306;28;20035;-53
2022/06/03 10:47:52;;;;;;;5.93;2.25;;;27.00;91.60;;;;;;5091388;28;20079;-56
2022/06/03 10:50:34;;;;;;;3.45;2.97;;;27.00;92.30;;;;;;5090847;28;20034;-53
2022/06/03 11:01:53;;;;;;;2.35;1.83;;;27.10;91.70;;;;;;5091536;28;20417;-51
2022/06/03 11:04:38;;;;;;;4.60;1.95;;;27.10;90.90;;;;;;5091447;28;20032;-55
2022/06/03 11:07:24;;;;;;;6.07;2.20;;;27.10;90.70;;;;;;5091065;28;20074;-56
2022/06/03 11:10:01;;;;;;;13.27;2.35;;;27.10;90.70;;;;;;5091208;28;20063;-53
2022/06/03 11:12:29;;;;;;;4.50;2.08;;;27.20;91.70;;;;;;5093234;28;20063;-55
2022/06/03 11:14:56;;;;;;;3.70;2.28;;;27.50;90.90;;;;;;5095377;28;20028;-52
2022/06/03 11:17:25;;;;;;;5.53;2.38;;;27.70;91.10;;;;;;5095165;28;20032;-53
2022/06/03 11:19:56;;;;;;;5.55;2.03;;;27.90;91.30;;;;;;5095392;28;20081;-54
2022/06/03 11:22:32;;;;;;;2.25;1.90;;;27.80;90.30;;;;;;5095423;28;20023;-55
2022/06/03 11:24:58;;;;;;;6.45;2.83;;;27.70;89.80;;;;;;5095229;28;20061;-52
2022/06/03 11:27:29;;;;;;;6.15;2.10;;;27.80;86.90;;;;;;5095480;28;20366;-53
2022/06/03 11:30:02;;;;;;;3.25;2.25;;;28.10;89.50;;;;;;5094944;28;20157;-55
2022/06/03 11:32:31;;;;;;;7.07;2.10;;;28.40;86.00;;;;;;5095314;28;20024;-55
2022/06/03 11:35:06;;;;;;;2.80;1.92;;;28.30;89.80;;;;;;5095035;28;20099;-51
2022/06/03 11:37:37;;;;;;;5.95;2.47;;;28.10;88.50;;;;;;5095044;28;20031;-56
2022/06/03 11:40:20;;;;;;;8.48;1.88;;;28.30;87.50;;;;;;5094774;28;20477;-55
2022/06/03 11:43:08;;;;;;;4.07;2.20;;;28.50;86.30;;;;;;5093682;28;20055;-52
2022/06/03 11:45:44;;;;;;;4.30;1.83;;;28.50;86.30;;;;;;5094565;28;20177;-55
2022/06/03 11:48:25;;;;;;;3.63;2.05;;;28.70;85.00;;;;;;5094842;28;20621;-51
2022/06/03 11:50:52;;;;;;;3.17;1.73;;;29.10;84.50;;;;;;5094134;28;20032;-54
2022/06/03 11:53:26;;;;;;;2.47;1.80;;;29.80;85.10;;;;;;5094751;28;20647;-53
2022/06/03 11:56:00;;;;;;;8.23;1.98;;;29.50;80.90;;;;;;5094242;28;20118;-55
2022/06/03 11:58:40;;;;;;;4.80;1.98;;;29.10;81.30;;;;;;5094522;28;20032;-55
2022/06/03 12:01:12;;;;;;;4.40;1.92;;;29.10;79.30;;;;;;5094233;28;20039;-53
2022/06/03 12:03:56;;;;;;;1.90;1.73;;;28.50;78.80;;;;;;5094752;28;20403;-55
2022/06/03 12:06:32;;;;;;;7.43;2.25;;;28.60;81.90;;;;;;5094701;28;20047;-55
2022/06/03 12:09:11;;;;;;;4.18;2.08;;;28.90;83.10;;;;;;5093895;28;20016;-55
2022/06/03 12:14:40;;;;;;;2.03;1.83;;;29.80;81.10;;;;;;5093396;28;20077;-53
2022/06/03 12:17:06;;;;;;;3.55;1.85;;;30.60;80.40;;;;;;5092006;28;20033;-56
2022/06/03 12:19:47;;;;;;;2.75;1.70;;;31.20;79.90;;;;;;5091894;28;20031;-53
2022/06/03 12:22:22;;;;;;;5.75;2.00;;;31.60;76.40;;;;;;5092205;28;20051;-54
2022/06/03 12:24:52;;;;;;;2.95;2.00;;;31.90;73.90;;;;;;5092683;28;20047;-53
2022/06/03 12:27:39;;;;;;;1.90;1.75;;;32.60;71.80;;;;;;5093710;28;20119;-56
2022/06/03 12:30:14;;;;;;;2.40;1.63;;;32.70;73.30;;;;;;5093121;28;20024;-57
2022/06/03 12:33:09;;;;;;;6.03;1.52;;;33.30;71.30;;;;;;5092751;28;20451;-54
2022/06/03 12:35:44;;;;;;;2.45;1.60;;;33.20;70.20;;;;;;5092431;28;20024;-49
2022/06/03 12:38:22;;;;;;;2.05;1.60;;;33.50;64.80;;;;;;5092428;28;20386;-54
2022/06/03 12:40:54;;;;;;;9.10;1.73;;;33.60;67.20;;;;;;5093754;28;20035;-55
2022/06/03 12:43:24;;;;;;;1.83;1.50;;;34.00;66.60;;;;;;5092971;28;20097;-56
2022/06/03 12:46:05;;;;;;;5.07;1.60;;;34.00;67.20;;;;;;5092781;28;20557;-56
2022/06/03 12:48:43;;;;;;;8.73;1.42;;;34.50;60.50;;;;;;5093075;28;20035;-57
2022/06/03 12:51:19;;;;;;;2.80;1.58;;;34.40;64.40;;;;;;5093342;28;20111;-57
2022/06/03 12:53:48;;;;;;;6.38;1.70;;;34.50;61.90;;;;;;5093661;28;20043;-58
2022/06/03 12:56:55;;;;;;;6.53;1.50;;;34.50;60.40;;;;;;5093614;28;20024;-57
2022/06/03 12:59:29;;;;;;;5.22;1.83;;;35.00;61.90;;;;;;5082510;28;20032;-58
2022/06/03 13:02:23;;;;;;;4.32;1.38;;;35.10;61.50;;;;;;5093405;28;20127;-57
2022/06/03 13:04:55;;;;;;;6.57;1.55;;;35.20;61.00;;;;;;5093134;28;20028;-58
2022/06/03 13:07:27;;;;;;;8.98;2.20;;;36.40;58.80;;;;;;5093148;28;20549;-58
2022/06/03 13:09:52;;;;;;;5.97;1.60;;;36.60;59.30;;;;;;5092035;28;20467;-57
2022/06/03 13:12:31;;;;;;;12.50;1.55;;;36.60;58.60;;;;;;5091314;28;20035;-58
2022/06/03 13:15:22;;;;;;;2.85;1.38;;;36.10;55.40;;;;;;5079618;28;20038;-58
2022/06/03 13:20:38;;;;;;;4.50;1.58;;;35.30;59.00;;;;;;5083488;28;20661;-58
2022/06/03 13:23:29;;;;;;;5.43;1.23;;;34.40;58.80;;;;;;5082956;28;20693;-57
2022/06/03 13:26:15;;;;;;;3.33;1.63;;;34.10;59.90;;;;;;5083527;28;20008;-56
2022/06/03 13:28:43;;;;;;;9.05;1.70;;;33.40;60.30;;;;;;5082685;28;20100;-57
2022/06/03 13:31:30;;;;;;;1.98;1.80;;;33.00;59.40;;;;;;5084161;28;20527;-57
2022/06/03 13:34:12;;;;;;;4.85;2.13;;;32.80;62.00;;;;;;5083487;28;20119;-58
2022/06/03 13:37:21;;;;;;;4.88;2.10;;;32.70;61.90;;;;;;5083792;28;20032;-54
2022/06/03 13:39:50;;;;;;;3.13;1.80;;;32.30;62.70;;;;;;5081842;28;20447;-55
2022/06/03 13:45:03;;;;;;;6.00;2.33;;;31.30;62.50;;;;;;5083162;28;20426;-53
2022/06/03 13:47:42;;;;;;;7.10;3.65;;;31.10;65.10;;;;;;5083412;28;20032;-57
2022/06/03 13:50:14;;;;;;;7.57;2.58;;;31.20;65.90;;;;;;5083145;28;20510;-49
2022/06/03 13:53:04;;;;;;;8.25;2.00;;;30.90;63.80;;;;;;5083291;28;20044;-56
2022/06/03 13:55:41;;;;;;;5.40;1.95;;;31.00;66.40;;;;;;5081941;28;20059;-56
2022/06/03 13:58:35;;;;;;;5.63;1.75;;;31.00;64.50;;;;;;5082432;28;20379;-51
2022/06/03 14:01:34;;;;;;;11.80;2.20;;;31.00;65.50;;;;;;5082191;28;20616;-54
2022/06/03 14:04:27;;;;;;;4.40;2.15;;;30.90;65.20;;;;;;5081634;28;20274;-56
2022/06/03 14:07:03;;;;;;;4.03;2.00;;;30.60;65.30;;;;;;5080443;28;20032;-55
2022/06/03 14:10:00;;;;;;;3.08;2.65;;;30.40;66.90;;;;;;5082502;28;20429;-55
2022/06/03 14:13:01;;;;;;;6.00;1.88;;;30.00;66.70;;;;;;5077595;28;20082;-53
2022/06/03 14:15:50;;;;;;;6.20;1.85;;;30.50;68.40;;;;;;5073999;28;20036;-56
2022/06/03 14:18:55;;;;;;;2.85;2.00;;;30.50;69.00;;;;;;5081090;28;20016;-57
2022/06/03 14:21:32;;;;;;;7.45;2.13;;;30.60;68.90;;;;;;5076644;28;20060;-56
2022/06/03 14:24:04;;;;;;;4.38;2.10;;;30.80;68.80;;;;;;5080796;28;20040;-56
2022/06/03 14:26:39;;;;;;;2.07;1.90;;;30.60;68.40;;;;;;5080948;28;20526;-52
2022/06/03 14:29:14;;;;;;;5.95;2.08;;;30.40;66.10;;;;;;5080277;28;20028;-57
2022/06/03 14:31:54;;;;;;;8.70;2.53;;;30.30;67.60;;;;;;5080280;28;20036;-57
2022/06/03 14:34:26;;;;;;;9.90;2.15;;;30.00;67.60;;;;;;5080518;28;20062;-57